sensor_id;sensor_type;location;lat;lon;timestamp;P1;durP1;ratioP1;P2;durP2;ratioP2
30862;SDS011;17573;55.922;37.540;2023-01-13T00:00:48;20.25;;;11.07;;
30862;SDS011;17573;55.922;37.540;2023-01-13T00:03:14;18.60;;;12.75;;
30862;SDS011;17573;55.922;37.540;2023-01-13T00:05:40;18.00;;;10.80;;
30862;SDS011;17573;55.922;37.540;2023-01-13T00:08:06;9.45;;;7.70;;
30862;SDS011;17573;55.922;37.540;2023-01-13T00:10:32;18.25;;;11.13;;
30862;SDS011;17573;55.922;37.540;2023-01-13T00:12:59;18.70;;;11.00;;
30862;SDS011;17573;55.922;37.540;2023-01-13T00:15:25;15.50;;;10.57;;
30862;SDS011;17573;55.922;37.540;2023-01-13T00:17:51;11.25;;;7.65;;
30862;SDS011;17573;55.922;37.540;2023-01-13T00:20:17;19.83;;;10.45;;
30862;SDS011;17573;55.922;37.540;2023-01-13T00:22:43;12.60;;;9.00;;
30862;SDS011;17573;55.922;37.540;2023-01-13T00:25:09;14.23;;;9.60;;
30862;SDS011;17573;55.922;37.540;2023-01-13T00:27:34;13.20;;;9.48;;
30862;SDS011;17573;55.922;37.540;2023-01-13T00:30:00;16.52;;;9.45;;
30862;SDS011;17573;55.922;37.540;2023-01-13T00:32:27;17.25;;;10.68;;
30862;SDS011;17573;55.922;37.540;2023-01-13T00:34:53;19.45;;;8.93;;
30862;SDS011;17573;55.922;37.540;2023-01-13T00:37:19;16.20;;;10.40;;
30862;SDS011;17573;55.922;37.540;2023-01-13T00:39:44;19.80;;;11.10;;
30862;SDS011;17573;55.922;37.540;2023-01-13T00:42:10;19.85;;;11.70;;
30862;SDS011;17573;55.922;37.540;2023-01-13T00:44:55;22.65;;;11.07;;
30862;SDS011;17573;55.922;37.540;2023-01-13T00:47:21;19.70;;;7.82;;
30862;SDS011;17573;55.922;37.540;2023-01-13T00:49:48;23.75;;;9.15;;
30862;SDS011;17573;55.922;37.540;2023-01-13T00:52:14;12.30;;;8.82;;
30862;SDS011;17573;55.922;37.540;2023-01-13T00:54:40;14.45;;;8.45;;
30862;SDS011;17573;55.922;37.540;2023-01-13T00:57:06;27.30;;;12.20;;
30862;SDS011;17573;55.922;37.540;2023-01-13T00:59:32;11.48;;;7.65;;
30862;SDS011;17573;55.922;37.540;2023-01-13T01:01:57;16.15;;;9.10;;
30862;SDS011;17573;55.922;37.540;2023-01-13T01:04:23;11.10;;;7.80;;
30862;SDS011;17573;55.922;37.540;2023-01-13T01:06:49;15.50;;;9.45;;
30862;SDS011;17573;55.922;37.540;2023-01-13T01:09:16;13.20;;;11.02;;
30862;SDS011;17573;55.922;37.540;2023-01-13T01:11:42;9.57;;;7.45;;
30862;SDS011;17573;55.922;37.540;2023-01-13T01:14:08;14.77;;;8.75;;
30862;SDS011;17573;55.922;37.540;2023-01-13T01:16:36;16.48;;;10.57;;
30862;SDS011;17573;55.922;37.540;2023-01-13T01:19:03;8.52;;;7.53;;
30862;SDS011;17573;55.922;37.540;2023-01-13T01:21:29;17.95;;;8.98;;
30862;SDS011;17573;55.922;37.540;2023-01-13T01:23:57;12.68;;;8.93;;
30862;SDS011;17573;55.922;37.540;2023-01-13T01:26:25;17.92;;;11.93;;
30862;SDS011;17573;55.922;37.540;2023-01-13T01:28:52;16.77;;;11.60;;
30862;SDS011;17573;55.922;37.540;2023-01-13T01:31:22;22.45;;;10.50;;
30862;SDS011;17573;55.922;37.540;2023-01-13T01:33:48;14.55;;;8.77;;
30862;SDS011;17573;55.922;37.540;2023-01-13T01:36:16;15.05;;;8.52;;
30862;SDS011;17573;55.922;37.540;2023-01-13T01:38:42;11.13;;;7.78;;
30862;SDS011;17573;55.922;37.540;2023-01-13T01:41:11;20.48;;;9.20;;
30862;SDS011;17573;55.922;37.540;2023-01-13T01:43:47;14.07;;;9.35;;
30862;SDS011;17573;55.922;37.540;2023-01-13T01:46:30;15.45;;;8.48;;
30862;SDS011;17573;55.922;37.540;2023-01-13T01:49:11;16.00;;;11.40;;
30862;SDS011;17573;55.922;37.540;2023-01-13T01:51:55;15.50;;;10.52;;
30862;SDS011;17573;55.922;37.540;2023-01-13T01:54:45;14.02;;;8.20;;
30862;SDS011;17573;55.922;37.540;2023-01-13T01:57:20;12.95;;;8.13;;
30862;SDS011;17573;55.922;37.540;2023-01-13T01:59:48;18.38;;;12.20;;
30862;SDS011;17573;55.922;37.540;2023-01-13T02:02:14;21.20;;;11.15;;
30862;SDS011;17573;55.922;37.540;2023-01-13T02:04:42;23.80;;;11.45;;
30862;SDS011;17573;55.922;37.540;2023-01-13T02:07:17;10.90;;;9.45;;
30862;SDS011;17573;55.922;37.540;2023-01-13T02:09:44;16.08;;;10.00;;
30862;SDS011;17573;55.922;37.540;2023-01-13T02:12:09;24.92;;;12.27;;
30862;SDS011;17573;55.922;37.540;2023-01-13T02:14:54;9.70;;;7.32;;
30862;SDS011;17573;55.922;37.540;2023-01-13T02:31:29;12.15;;;8.45;;
30862;SDS011;17573;55.922;37.540;2023-01-13T02:34:10;13.55;;;10.15;;
30862;SDS011;17573;55.922;37.540;2023-01-13T02:36:47;8.77;;;7.35;;
30862;SDS011;17573;55.922;37.540;2023-01-13T02:39:24;17.45;;;10.40;;
30862;SDS011;17573;55.922;37.540;2023-01-13T02:44:52;27.77;;;10.05;;
30862;SDS011;17573;55.922;37.540;2023-01-13T02:47:21;14.15;;;9.98;;
30862;SDS011;17573;55.922;37.540;2023-01-13T02:49:49;14.10;;;9.57;;
30862;SDS011;17573;55.922;37.540;2023-01-13T02:52:24;18.52;;;9.20;;
30862;SDS011;17573;55.922;37.540;2023-01-13T02:55:06;14.23;;;7.50;;
30862;SDS011;17573;55.922;37.540;2023-01-13T02:57:35;14.02;;;7.90;;
30862;SDS011;17573;55.922;37.540;2023-01-13T03:00:03;13.52;;;9.65;;
30862;SDS011;17573;55.922;37.540;2023-01-13T03:02:31;9.68;;;7.45;;
30862;SDS011;17573;55.922;37.540;2023-01-13T03:04:57;13.82;;;8.38;;
30862;SDS011;17573;55.922;37.540;2023-01-13T03:09:54;16.00;;;9.43;;
30862;SDS011;17573;55.922;37.540;2023-01-13T03:12:48;19.67;;;9.18;;
30862;SDS011;17573;55.922;37.540;2023-01-13T03:15:28;18.42;;;8.35;;
30862;SDS011;17573;55.922;37.540;2023-01-13T03:20:34;15.70;;;10.25;;
30862;SDS011;17573;55.922;37.540;2023-01-13T03:23:14;17.60;;;8.18;;
30862;SDS011;17573;55.922;37.540;2023-01-13T03:25:52;11.55;;;6.75;;
30862;SDS011;17573;55.922;37.540;2023-01-13T03:28:24;12.50;;;8.07;;
30862;SDS011;17573;55.922;37.540;2023-01-13T03:30:56;17.17;;;9.70;;
30862;SDS011;17573;55.922;37.540;2023-01-13T03:33:28;14.27;;;8.63;;
30862;SDS011;17573;55.922;37.540;2023-01-13T03:41:06;8.50;;;7.10;;
30862;SDS011;17573;55.922;37.540;2023-01-13T03:43:43;11.32;;;7.63;;
30862;SDS011;17573;55.922;37.540;2023-01-13T03:49:19;11.43;;;9.88;;
30862;SDS011;17573;55.922;37.540;2023-01-13T03:51:50;9.63;;;8.07;;
30862;SDS011;17573;55.922;37.540;2023-01-13T03:54:20;12.35;;;8.65;;
30862;SDS011;17573;55.922;37.540;2023-01-13T03:56:53;11.38;;;7.68;;
30862;SDS011;17573;55.922;37.540;2023-01-13T03:59:23;12.88;;;8.88;;
30862;SDS011;17573;55.922;37.540;2023-01-13T04:07:22;12.68;;;9.23;;
30862;SDS011;17573;55.922;37.540;2023-01-13T04:09:53;13.82;;;8.77;;
30862;SDS011;17573;55.922;37.540;2023-01-13T04:12:25;14.05;;;9.07;;
30862;SDS011;17573;55.922;37.540;2023-01-13T04:15:22;8.27;;;6.28;;
30862;SDS011;17573;55.922;37.540;2023-01-13T04:17:52;12.73;;;8.65;;
30862;SDS011;17573;55.922;37.540;2023-01-13T04:20:18;11.43;;;8.77;;
30862;SDS011;17573;55.922;37.540;2023-01-13T04:22:44;8.20;;;7.03;;
30862;SDS011;17573;55.922;37.540;2023-01-13T04:25:10;16.80;;;9.18;;
30862;SDS011;17573;55.922;37.540;2023-01-13T04:27:36;20.88;;;10.25;;
30862;SDS011;17573;55.922;37.540;2023-01-13T04:30:02;11.25;;;8.68;;
30862;SDS011;17573;55.922;37.540;2023-01-13T04:32:29;9.35;;;6.90;;
30862;SDS011;17573;55.922;37.540;2023-01-13T04:34:55;12.57;;;9.05;;
30862;SDS011;17573;55.922;37.540;2023-01-13T04:37:21;12.68;;;8.40;;
30862;SDS011;17573;55.922;37.540;2023-01-13T04:39:46;13.73;;;9.52;;
30862;SDS011;17573;55.922;37.540;2023-01-13T04:42:12;13.65;;;8.77;;
30862;SDS011;17573;55.922;37.540;2023-01-13T04:44:38;16.38;;;8.73;;
30862;SDS011;17573;55.922;37.540;2023-01-13T04:47:04;10.13;;;6.95;;
30862;SDS011;17573;55.922;37.540;2023-01-13T04:49:30;11.88;;;8.65;;
30862;SDS011;17573;55.922;37.540;2023-01-13T04:51:55;13.63;;;9.25;;
30862;SDS011;17573;55.922;37.540;2023-01-13T04:54:21;16.02;;;8.05;;
30862;SDS011;17573;55.922;37.540;2023-01-13T04:56:47;18.63;;;10.77;;
30862;SDS011;17573;55.922;37.540;2023-01-13T04:59:13;10.13;;;7.93;;
30862;SDS011;17573;55.922;37.540;2023-01-13T05:01:39;13.07;;;9.55;;
30862;SDS011;17573;55.922;37.540;2023-01-13T05:04:05;11.15;;;8.70;;
30862;SDS011;17573;55.922;37.540;2023-01-13T05:06:31;12.60;;;10.10;;
30862;SDS011;17573;55.922;37.540;2023-01-13T05:08:57;18.50;;;10.30;;
30862;SDS011;17573;55.922;37.540;2023-01-13T05:11:23;13.70;;;8.35;;
30862;SDS011;17573;55.922;37.540;2023-01-13T05:14:08;15.68;;;10.73;;
30862;SDS011;17573;55.922;37.540;2023-01-13T05:16:53;18.42;;;9.82;;
30862;SDS011;17573;55.922;37.540;2023-01-13T05:19:26;12.73;;;8.43;;
30862;SDS011;17573;55.922;37.540;2023-01-13T05:21:53;12.45;;;8.95;;
30862;SDS011;17573;55.922;37.540;2023-01-13T05:24:37;17.65;;;8.20;;
30862;SDS011;17573;55.922;37.540;2023-01-13T05:27:21;17.30;;;8.98;;
30862;SDS011;17573;55.922;37.540;2023-01-13T05:29:47;10.30;;;7.85;;
30862;SDS011;17573;55.922;37.540;2023-01-13T05:32:13;18.70;;;8.38;;
30862;SDS011;17573;55.922;37.540;2023-01-13T05:34:38;9.73;;;7.15;;
30862;SDS011;17573;55.922;37.540;2023-01-13T05:37:04;16.33;;;9.50;;
30862;SDS011;17573;55.922;37.540;2023-01-13T05:39:32;11.85;;;7.60;;
30862;SDS011;17573;55.922;37.540;2023-01-13T05:42:18;11.25;;;7.90;;
30862;SDS011;17573;55.922;37.540;2023-01-13T05:45:02;14.80;;;9.13;;
30862;SDS011;17573;55.922;37.540;2023-01-13T05:47:30;19.08;;;9.68;;
30862;SDS011;17573;55.922;37.540;2023-01-13T05:49:56;22.58;;;9.40;;
30862;SDS011;17573;55.922;37.540;2023-01-13T05:52:22;11.75;;;8.05;;
30862;SDS011;17573;55.922;37.540;2023-01-13T05:54:48;8.07;;;7.22;;
30862;SDS011;17573;55.922;37.540;2023-01-13T05:57:13;11.38;;;8.75;;
30862;SDS011;17573;55.922;37.540;2023-01-13T05:59:39;14.90;;;8.10;;
30862;SDS011;17573;55.922;37.540;2023-01-13T06:02:05;14.10;;;8.88;;
30862;SDS011;17573;55.922;37.540;2023-01-13T06:04:31;19.10;;;9.90;;
30862;SDS011;17573;55.922;37.540;2023-01-13T06:06:57;10.10;;;7.95;;
30862;SDS011;17573;55.922;37.540;2023-01-13T06:09:22;15.27;;;8.05;;
30862;SDS011;17573;55.922;37.540;2023-01-13T06:11:48;7.75;;;7.07;;
30862;SDS011;17573;55.922;37.540;2023-01-13T06:14:14;11.70;;;8.10;;
30862;SDS011;17573;55.922;37.540;2023-01-13T06:16:40;13.82;;;8.60;;
30862;SDS011;17573;55.922;37.540;2023-01-13T06:19:06;10.35;;;8.70;;
30862;SDS011;17573;55.922;37.540;2023-01-13T06:21:37;15.60;;;8.35;;
30862;SDS011;17573;55.922;37.540;2023-01-13T06:24:04;14.70;;;9.43;;
30862;SDS011;17573;55.922;37.540;2023-01-13T06:26:32;10.50;;;9.15;;
30862;SDS011;17573;55.922;37.540;2023-01-13T06:29:01;14.48;;;9.57;;
30862;SDS011;17573;55.922;37.540;2023-01-13T06:31:27;23.30;;;11.38;;
30862;SDS011;17573;55.922;37.540;2023-01-13T06:33:54;16.38;;;9.32;;
30862;SDS011;17573;55.922;37.540;2023-01-13T06:36:26;15.75;;;9.48;;
30862;SDS011;17573;55.922;37.540;2023-01-13T06:38:55;19.30;;;9.05;;
30862;SDS011;17573;55.922;37.540;2023-01-13T06:41:22;13.95;;;10.43;;
30862;SDS011;17573;55.922;37.540;2023-01-13T06:44:07;16.45;;;9.93;;
30862;SDS011;17573;55.922;37.540;2023-01-13T06:46:33;13.07;;;8.93;;
30862;SDS011;17573;55.922;37.540;2023-01-13T06:48:59;8.07;;;7.30;;
30862;SDS011;17573;55.922;37.540;2023-01-13T06:51:25;17.00;;;9.20;;
30862;SDS011;17573;55.922;37.540;2023-01-13T06:53:51;12.95;;;8.95;;
30862;SDS011;17573;55.922;37.540;2023-01-13T06:56:17;14.60;;;9.80;;
30862;SDS011;17573;55.922;37.540;2023-01-13T06:58:43;15.13;;;10.32;;
30862;SDS011;17573;55.922;37.540;2023-01-13T07:01:09;11.10;;;7.82;;
30862;SDS011;17573;55.922;37.540;2023-01-13T07:03:34;13.90;;;9.57;;
30862;SDS011;17573;55.922;37.540;2023-01-13T07:06:00;29.52;;;10.13;;
30862;SDS011;17573;55.922;37.540;2023-01-13T07:08:26;11.40;;;7.32;;
30862;SDS011;17573;55.922;37.540;2023-01-13T07:10:52;14.38;;;10.02;;
30862;SDS011;17573;55.922;37.540;2023-01-13T07:13:18;10.77;;;6.95;;
30862;SDS011;17573;55.922;37.540;2023-01-13T07:16:04;8.30;;;7.30;;
30862;SDS011;17573;55.922;37.540;2023-01-13T07:18:31;20.20;;;11.23;;
30862;SDS011;17573;55.922;37.540;2023-01-13T07:20:58;17.45;;;9.15;;
30862;SDS011;17573;55.922;37.540;2023-01-13T07:23:33;11.68;;;8.23;;
30862;SDS011;17573;55.922;37.540;2023-01-13T07:26:04;13.13;;;8.00;;
30862;SDS011;17573;55.922;37.540;2023-01-13T07:28:31;20.58;;;9.52;;
30862;SDS011;17573;55.922;37.540;2023-01-13T07:30:57;11.50;;;8.75;;
30862;SDS011;17573;55.922;37.540;2023-01-13T07:33:23;16.85;;;9.35;;
30862;SDS011;17573;55.922;37.540;2023-01-13T07:35:56;11.20;;;9.23;;
30862;SDS011;17573;55.922;37.540;2023-01-13T07:38:23;16.92;;;12.00;;
30862;SDS011;17573;55.922;37.540;2023-01-13T07:40:49;24.13;;;11.98;;
30862;SDS011;17573;55.922;37.540;2023-01-13T07:43:15;17.40;;;8.10;;
30862;SDS011;17573;55.922;37.540;2023-01-13T07:45:59;22.05;;;10.63;;
30862;SDS011;17573;55.922;37.540;2023-01-13T07:48:27;17.33;;;9.63;;
30862;SDS011;17573;55.922;37.540;2023-01-13T07:50:54;12.73;;;8.80;;
30862;SDS011;17573;55.922;37.540;2023-01-13T07:53:20;12.32;;;9.93;;
30862;SDS011;17573;55.922;37.540;2023-01-13T07:55:47;12.55;;;10.18;;
30862;SDS011;17573;55.922;37.540;2023-01-13T07:58:13;19.50;;;10.70;;
30862;SDS011;17573;55.922;37.540;2023-01-13T08:00:38;15.38;;;9.25;;
30862;SDS011;17573;55.922;37.540;2023-01-13T08:03:04;16.02;;;8.05;;
30862;SDS011;17573;55.922;37.540;2023-01-13T08:05:30;12.65;;;7.03;;
30862;SDS011;17573;55.922;37.540;2023-01-13T08:07:56;12.93;;;9.10;;
30862;SDS011;17573;55.922;37.540;2023-01-13T08:10:22;8.32;;;7.53;;
30862;SDS011;17573;55.922;37.540;2023-01-13T08:12:48;18.00;;;9.75;;
30862;SDS011;17573;55.922;37.540;2023-01-13T08:15:32;12.43;;;9.90;;
30862;SDS011;17573;55.922;37.540;2023-01-13T08:17:59;17.95;;;9.38;;
30862;SDS011;17573;55.922;37.540;2023-01-13T08:20:25;19.10;;;7.88;;
30862;SDS011;17573;55.922;37.540;2023-01-13T08:22:54;18.65;;;9.57;;
30862;SDS011;17573;55.922;37.540;2023-01-13T08:25:24;16.92;;;9.73;;
30862;SDS011;17573;55.922;37.540;2023-01-13T08:27:51;15.82;;;10.40;;
30862;SDS011;17573;55.922;37.540;2023-01-13T08:30:17;10.30;;;8.65;;
30862;SDS011;17573;55.922;37.540;2023-01-13T08:32:43;10.68;;;7.28;;
30862;SDS011;17573;55.922;37.540;2023-01-13T08:35:10;13.25;;;8.52;;
30862;SDS011;17573;55.922;37.540;2023-01-13T08:37:36;12.82;;;9.05;;
30862;SDS011;17573;55.922;37.540;2023-01-13T08:40:02;10.07;;;6.95;;
30862;SDS011;17573;55.922;37.540;2023-01-13T08:42:29;15.05;;;9.57;;
30862;SDS011;17573;55.922;37.540;2023-01-13T08:44:55;24.55;;;9.48;;
30862;SDS011;17573;55.922;37.540;2023-01-13T08:47:21;21.55;;;9.82;;
30862;SDS011;17573;55.922;37.540;2023-01-13T08:49:47;15.77;;;8.52;;
30862;SDS011;17573;55.922;37.540;2023-01-13T08:52:13;13.93;;;10.13;;
30862;SDS011;17573;55.922;37.540;2023-01-13T08:54:40;11.13;;;8.13;;
30862;SDS011;17573;55.922;37.540;2023-01-13T08:57:05;12.68;;;9.32;;
30862;SDS011;17573;55.922;37.540;2023-01-13T08:59:32;22.98;;;11.05;;
30862;SDS011;17573;55.922;37.540;2023-01-13T09:01:58;16.05;;;10.63;;
30862;SDS011;17573;55.922;37.540;2023-01-13T09:04:25;18.88;;;12.07;;
30862;SDS011;17573;55.922;37.540;2023-01-13T09:06:52;13.52;;;9.13;;
30862;SDS011;17573;55.922;37.540;2023-01-13T09:09:19;20.80;;;10.18;;
30862;SDS011;17573;55.922;37.540;2023-01-13T09:11:46;19.50;;;13.13;;
30862;SDS011;17573;55.922;37.540;2023-01-13T09:14:33;14.63;;;9.02;;
30862;SDS011;17573;55.922;37.540;2023-01-13T09:17:01;9.23;;;7.82;;
30862;SDS011;17573;55.922;37.540;2023-01-13T09:19:27;16.65;;;10.35;;
30862;SDS011;17573;55.922;37.540;2023-01-13T09:21:53;19.75;;;10.77;;
30862;SDS011;17573;55.922;37.540;2023-01-13T09:24:20;10.52;;;8.45;;
30862;SDS011;17573;55.922;37.540;2023-01-13T09:26:47;11.68;;;8.27;;
30862;SDS011;17573;55.922;37.540;2023-01-13T09:29:13;16.52;;;9.45;;
30862;SDS011;17573;55.922;37.540;2023-01-13T09:31:39;17.95;;;9.80;;
30862;SDS011;17573;55.922;37.540;2023-01-13T09:34:05;15.98;;;10.77;;
30862;SDS011;17573;55.922;37.540;2023-01-13T09:36:50;14.18;;;10.65;;
30862;SDS011;17573;55.922;37.540;2023-01-13T09:39:16;22.52;;;12.07;;
30862;SDS011;17573;55.922;37.540;2023-01-13T09:41:44;13.32;;;10.10;;
30862;SDS011;17573;55.922;37.540;2023-01-13T09:44:53;15.05;;;10.38;;
30862;SDS011;17573;55.922;37.540;2023-01-13T09:52:39;17.33;;;9.25;;
30862;SDS011;17573;55.922;37.540;2023-01-13T09:57:41;14.95;;;9.85;;
30862;SDS011;17573;55.922;37.540;2023-01-13T10:00:10;23.35;;;11.82;;
30862;SDS011;17573;55.922;37.540;2023-01-13T10:02:42;22.05;;;11.43;;
30862;SDS011;17573;55.922;37.540;2023-01-13T10:08:11;17.30;;;9.98;;
30862;SDS011;17573;55.922;37.540;2023-01-13T10:10:44;25.52;;;11.65;;
30862;SDS011;17573;55.922;37.540;2023-01-13T10:13:16;11.93;;;9.23;;
30862;SDS011;17573;55.922;37.540;2023-01-13T10:15:50;20.80;;;11.82;;
30862;SDS011;17573;55.922;37.540;2023-01-13T10:24:12;23.00;;;11.13;;
30862;SDS011;17573;55.922;37.540;2023-01-13T10:27:09;17.02;;;10.95;;
30862;SDS011;17573;55.922;37.540;2023-01-13T10:29:38;12.18;;;8.60;;
30862;SDS011;17573;55.922;37.540;2023-01-13T10:32:04;17.08;;;10.40;;
30862;SDS011;17573;55.922;37.540;2023-01-13T10:34:30;19.38;;;11.05;;
30862;SDS011;17573;55.922;37.540;2023-01-13T10:36:59;13.45;;;9.25;;
30862;SDS011;17573;55.922;37.540;2023-01-13T10:39:40;26.08;;;12.00;;
30862;SDS011;17573;55.922;37.540;2023-01-13T10:42:13;11.95;;;8.82;;
30862;SDS011;17573;55.922;37.540;2023-01-13T10:44:47;15.60;;;9.90;;
30862;SDS011;17573;55.922;37.540;2023-01-13T10:52:34;14.10;;;9.48;;
30862;SDS011;17573;55.922;37.540;2023-01-13T10:55:03;14.93;;;9.63;;
30862;SDS011;17573;55.922;37.540;2023-01-13T11:00:59;16.35;;;9.82;;
30862;SDS011;17573;55.922;37.540;2023-01-13T11:03:34;18.95;;;9.63;;
30862;SDS011;17573;55.922;37.540;2023-01-13T11:06:06;17.48;;;10.50;;
30862;SDS011;17573;55.922;37.540;2023-01-13T11:08:40;19.25;;;11.88;;
30862;SDS011;17573;55.922;37.540;2023-01-13T11:11:26;12.77;;;8.65;;
30862;SDS011;17573;55.922;37.540;2023-01-13T11:13:55;27.33;;;9.50;;
30862;SDS011;17573;55.922;37.540;2023-01-13T11:16:41;15.63;;;11.35;;
30862;SDS011;17573;55.922;37.540;2023-01-13T11:19:09;14.50;;;9.88;;
30862;SDS011;17573;55.922;37.540;2023-01-13T11:24:34;16.27;;;9.98;;
30862;SDS011;17573;55.922;37.540;2023-01-13T11:32:16;16.25;;;9.45;;
30862;SDS011;17573;55.922;37.540;2023-01-13T11:34:44;27.02;;;13.18;;
30862;SDS011;17573;55.922;37.540;2023-01-13T11:37:35;15.35;;;10.73;;
30862;SDS011;17573;55.922;37.540;2023-01-13T11:40:03;18.60;;;11.18;;
30862;SDS011;17573;55.922;37.540;2023-01-13T11:42:55;16.48;;;10.30;;
30862;SDS011;17573;55.922;37.540;2023-01-13T11:45:36;17.00;;;10.57;;
30862;SDS011;17573;55.922;37.540;2023-01-13T11:48:28;24.77;;;10.73;;
30862;SDS011;17573;55.922;37.540;2023-01-13T12:01:48;16.58;;;11.70;;
30862;SDS011;17573;55.922;37.540;2023-01-13T12:07:40;19.98;;;10.98;;
30862;SDS011;17573;55.922;37.540;2023-01-13T12:10:31;21.02;;;9.75;;
30862;SDS011;17573;55.922;37.540;2023-01-13T12:27:23;15.63;;;11.85;;
30862;SDS011;17573;55.922;37.540;2023-01-13T12:30:09;20.10;;;10.02;;
30862;SDS011;17573;55.922;37.540;2023-01-13T12:32:46;20.40;;;12.18;;
30862;SDS011;17573;55.922;37.540;2023-01-13T12:45:52;16.33;;;9.20;;
30862;SDS011;17573;55.922;37.540;2023-01-13T12:53:47;17.23;;;10.45;;
30862;SDS011;17573;55.922;37.540;2023-01-13T13:01:47;21.65;;;12.63;;
30862;SDS011;17573;55.922;37.540;2023-01-13T13:04:18;19.15;;;10.98;;
30862;SDS011;17573;55.922;37.540;2023-01-13T13:07:02;19.88;;;10.98;;
30862;SDS011;17573;55.922;37.540;2023-01-13T13:09:42;15.98;;;10.18;;
30862;SDS011;17573;55.922;37.540;2023-01-13T13:12:47;26.52;;;11.10;;
30862;SDS011;17573;55.922;37.540;2023-01-13T13:15:28;13.60;;;10.40;;
30862;SDS011;17573;55.922;37.540;2023-01-13T13:29:20;16.77;;;11.73;;
30862;SDS011;17573;55.922;37.540;2023-01-13T13:34:36;18.73;;;11.50;;
30862;SDS011;17573;55.922;37.540;2023-01-13T13:37:18;19.05;;;11.45;;
30862;SDS011;17573;55.922;37.540;2023-01-13T13:39:48;12.68;;;9.60;;
30862;SDS011;17573;55.922;37.540;2023-01-13T13:42:37;25.83;;;13.05;;
30862;SDS011;17573;55.922;37.540;2023-01-13T13:45:26;20.50;;;9.88;;
30862;SDS011;17573;55.922;37.540;2023-01-13T13:48:24;19.30;;;11.88;;
30862;SDS011;17573;55.922;37.540;2023-01-13T13:50:54;19.00;;;12.85;;
30862;SDS011;17573;55.922;37.540;2023-01-13T13:53:26;21.08;;;13.38;;
30862;SDS011;17573;55.922;37.540;2023-01-13T13:55:55;16.88;;;10.23;;
30862;SDS011;17573;55.922;37.540;2023-01-13T13:58:24;36.97;;;15.38;;
30862;SDS011;17573;55.922;37.540;2023-01-13T14:00:51;19.08;;;9.80;;
30862;SDS011;17573;55.922;37.540;2023-01-13T14:06:05;19.08;;;13.13;;
30862;SDS011;17573;55.922;37.540;2023-01-13T14:08:36;15.13;;;10.93;;
30862;SDS011;17573;55.922;37.540;2023-01-13T14:11:24;16.42;;;11.40;;
30862;SDS011;17573;55.922;37.540;2023-01-13T14:14:00;22.10;;;13.90;;
30862;SDS011;17573;55.922;37.540;2023-01-13T14:16:28;18.55;;;9.88;;
30862;SDS011;17573;55.922;37.540;2023-01-13T14:18:54;30.70;;;14.10;;
30862;SDS011;17573;55.922;37.540;2023-01-13T14:21:21;21.35;;;13.18;;
30862;SDS011;17573;55.922;37.540;2023-01-13T14:23:51;11.90;;;9.60;;
30862;SDS011;17573;55.922;37.540;2023-01-13T14:26:30;21.63;;;15.20;;
30862;SDS011;17573;55.922;37.540;2023-01-13T14:28:57;22.90;;;14.38;;
30862;SDS011;17573;55.922;37.540;2023-01-13T14:31:25;24.35;;;11.05;;
30862;SDS011;17573;55.922;37.540;2023-01-13T14:33:52;19.67;;;11.38;;
30862;SDS011;17573;55.922;37.540;2023-01-13T14:36:23;17.90;;;11.85;;
30862;SDS011;17573;55.922;37.540;2023-01-13T14:47:00;22.92;;;14.05;;
30862;SDS011;17573;55.922;37.540;2023-01-13T14:49:37;30.83;;;14.80;;
30862;SDS011;17573;55.922;37.540;2023-01-13T14:52:09;27.88;;;16.30;;
30862;SDS011;17573;55.922;37.540;2023-01-13T15:02:35;22.13;;;13.93;;
30862;SDS011;17573;55.922;37.540;2023-01-13T15:07:57;30.73;;;15.52;;
30862;SDS011;17573;55.922;37.540;2023-01-13T15:10:25;23.90;;;14.07;;
30862;SDS011;17573;55.922;37.540;2023-01-13T15:12:53;24.15;;;13.60;;
30862;SDS011;17573;55.922;37.540;2023-01-13T15:17:54;23.08;;;15.65;;
30862;SDS011;17573;55.922;37.540;2023-01-13T15:20:21;29.48;;;16.45;;
30862;SDS011;17573;55.922;37.540;2023-01-13T15:22:48;25.23;;;13.65;;
30862;SDS011;17573;55.922;37.540;2023-01-13T15:25:15;28.70;;;16.23;;
30862;SDS011;17573;55.922;37.540;2023-01-13T15:27:42;20.95;;;12.98;;
30862;SDS011;17573;55.922;37.540;2023-01-13T15:30:12;27.70;;;13.93;;
30862;SDS011;17573;55.922;37.540;2023-01-13T15:32:40;29.25;;;13.18;;
30862;SDS011;17573;55.922;37.540;2023-01-13T15:35:06;26.55;;;13.93;;
30862;SDS011;17573;55.922;37.540;2023-01-13T15:37:34;27.73;;;14.32;;
30862;SDS011;17573;55.922;37.540;2023-01-13T15:40:00;38.35;;;15.68;;
30862;SDS011;17573;55.922;37.540;2023-01-13T15:42:29;22.80;;;14.35;;
30862;SDS011;17573;55.922;37.540;2023-01-13T15:45:13;27.17;;;13.52;;
30862;SDS011;17573;55.922;37.540;2023-01-13T15:47:58;29.73;;;13.80;;
30862;SDS011;17573;55.922;37.540;2023-01-13T15:50:24;25.98;;;15.80;;
30862;SDS011;17573;55.922;37.540;2023-01-13T15:52:50;36.47;;;16.83;;
30862;SDS011;17573;55.922;37.540;2023-01-13T15:55:15;30.73;;;16.58;;
30862;SDS011;17573;55.922;37.540;2023-01-13T15:57:43;31.67;;;16.75;;
30862;SDS011;17573;55.922;37.540;2023-01-13T16:00:13;29.92;;;16.17;;
30862;SDS011;17573;55.922;37.540;2023-01-13T16:02:41;20.85;;;12.90;;
30862;SDS011;17573;55.922;37.540;2023-01-13T16:05:08;37.15;;;17.42;;
30862;SDS011;17573;55.922;37.540;2023-01-13T16:07:35;38.58;;;16.15;;
30862;SDS011;17573;55.922;37.540;2023-01-13T16:10:01;29.25;;;16.00;;
30862;SDS011;17573;55.922;37.540;2023-01-13T16:12:30;37.22;;;20.17;;
30862;SDS011;17573;55.922;37.540;2023-01-13T16:14:56;32.90;;;15.80;;
30862;SDS011;17573;55.922;37.540;2023-01-13T16:17:23;32.53;;;18.85;;
30862;SDS011;17573;55.922;37.540;2023-01-13T16:19:51;31.30;;;17.95;;
30862;SDS011;17573;55.922;37.540;2023-01-13T16:22:17;31.25;;;17.67;;
30862;SDS011;17573;55.922;37.540;2023-01-13T16:24:43;45.75;;;17.88;;
30862;SDS011;17573;55.922;37.540;2023-01-13T16:27:19;30.05;;;15.90;;
30862;SDS011;17573;55.922;37.540;2023-01-13T16:29:46;27.98;;;14.68;;
30862;SDS011;17573;55.922;37.540;2023-01-13T16:32:13;28.05;;;16.17;;
30862;SDS011;17573;55.922;37.540;2023-01-13T16:34:39;27.40;;;16.20;;
30862;SDS011;17573;55.922;37.540;2023-01-13T16:37:08;27.23;;;15.40;;
30862;SDS011;17573;55.922;37.540;2023-01-13T16:39:42;39.58;;;18.27;;
30862;SDS011;17573;55.922;37.540;2023-01-13T16:42:07;37.45;;;17.88;;
30862;SDS011;17573;55.922;37.540;2023-01-13T16:44:33;22.77;;;14.00;;
30862;SDS011;17573;55.922;37.540;2023-01-13T16:46:59;33.75;;;17.80;;
30862;SDS011;17573;55.922;37.540;2023-01-13T16:49:26;28.55;;;16.92;;
30862;SDS011;17573;55.922;37.540;2023-01-13T16:51:51;24.73;;;14.90;;
30862;SDS011;17573;55.922;37.540;2023-01-13T16:54:17;32.75;;;18.17;;
30862;SDS011;17573;55.922;37.540;2023-01-13T16:56:43;27.38;;;15.43;;
30862;SDS011;17573;55.922;37.540;2023-01-13T16:59:10;29.20;;;14.73;;
30862;SDS011;17573;55.922;37.540;2023-01-13T17:01:39;23.67;;;14.90;;
30862;SDS011;17573;55.922;37.540;2023-01-13T17:04:05;37.42;;;16.38;;
30862;SDS011;17573;55.922;37.540;2023-01-13T17:06:38;30.60;;;14.57;;
30862;SDS011;17573;55.922;37.540;2023-01-13T17:09:18;29.98;;;17.55;;
30862;SDS011;17573;55.922;37.540;2023-01-13T17:11:46;37.08;;;17.80;;